sensor_id;sensor_type;location;lat;lon;timestamp;P1;durP1;ratioP1;P2;durP2;ratioP2
74344;SDS011;62776;50.518;6.732;2024-01-15T00:02:14;5.40;;;4.88;;
74344;SDS011;62776;50.518;6.732;2024-01-15T00:05:01;5.55;;;5.05;;
74344;SDS011;62776;50.518;6.732;2024-01-15T00:07:47;4.55;;;4.15;;
74344;SDS011;62776;50.518;6.732;2024-01-15T00:10:34;5.43;;;4.13;;
74344;SDS011;62776;50.518;6.732;2024-01-15T00:13:20;5.35;;;4.72;;
74344;SDS011;62776;50.518;6.732;2024-01-15T00:16:06;5.35;;;4.93;;
74344;SDS011;62776;50.518;6.732;2024-01-15T00:18:53;4.55;;;4.15;;
74344;SDS011;62776;50.518;6.732;2024-01-15T00:21:39;4.40;;;4.00;;
74344;SDS011;62776;50.518;6.732;2024-01-15T00:24:28;5.20;;;4.70;;
74344;SDS011;62776;50.518;6.732;2024-01-15T00:27:15;5.05;;;4.47;;
74344;SDS011;62776;50.518;6.732;2024-01-15T00:30:01;5.30;;;4.63;;
74344;SDS011;62776;50.518;6.732;2024-01-15T00:32:49;5.30;;;4.40;;
74344;SDS011;62776;50.518;6.732;2024-01-15T00:35:36;5.35;;;4.85;;
74344;SDS011;62776;50.518;6.732;2024-01-15T00:38:22;5.50;;;4.93;;
74344;SDS011;62776;50.518;6.732;2024-01-15T00:41:12;4.47;;;4.07;;
74344;SDS011;62776;50.518;6.732;2024-01-15T00:44:01;5.20;;;4.70;;
74344;SDS011;62776;50.518;6.732;2024-01-15T00:46:48;6.15;;;5.55;;
74344;SDS011;62776;50.518;6.732;2024-01-15T00:49:37;5.43;;;4.93;;
74344;SDS011;62776;50.518;6.732;2024-01-15T00:52:24;6.07;;;5.47;;
74344;SDS011;62776;50.518;6.732;2024-01-15T00:55:10;4.85;;;4.45;;
74344;SDS011;62776;50.518;6.732;2024-01-15T00:57:59;6.28;;;5.03;;
74344;SDS011;62776;50.518;6.732;2024-01-15T01:00:45;5.72;;;5.05;;
74344;SDS011;62776;50.518;6.732;2024-01-15T01:03:32;5.28;;;4.63;;
74344;SDS011;62776;50.518;6.732;2024-01-15T01:06:18;6.25;;;5.32;;
74344;SDS011;62776;50.518;6.732;2024-01-15T01:09:05;5.63;;;5.15;;
74344;SDS011;62776;50.518;6.732;2024-01-15T01:11:51;5.70;;;5.20;;
74344;SDS011;62776;50.518;6.732;2024-01-15T01:14:38;5.32;;;4.85;;
74344;SDS011;62776;50.518;6.732;2024-01-15T01:17:24;5.43;;;4.93;;
74344;SDS011;62776;50.518;6.732;2024-01-15T01:20:11;5.93;;;5.03;;
74344;SDS011;62776;50.518;6.732;2024-01-15T01:22:57;5.82;;;5.32;;
74344;SDS011;62776;50.518;6.732;2024-01-15T01:25:52;7.03;;;5.88;;
74344;SDS011;62776;50.518;6.732;2024-01-15T01:28:41;5.50;;;4.68;;
74344;SDS011;62776;50.518;6.732;2024-01-15T01:31:27;6.07;;;4.55;;
74344;SDS011;62776;50.518;6.732;2024-01-15T01:34:14;5.72;;;5.22;;
74344;SDS011;62776;50.518;6.732;2024-01-15T01:37:01;6.40;;;5.78;;
74344;SDS011;62776;50.518;6.732;2024-01-15T01:39:47;5.50;;;4.95;;
74344;SDS011;62776;50.518;6.732;2024-01-15T01:42:34;5.68;;;5.18;;
74344;SDS011;62776;50.518;6.732;2024-01-15T01:45:20;5.90;;;5.32;;
74344;SDS011;62776;50.518;6.732;2024-01-15T01:48:07;5.18;;;4.68;;
74344;SDS011;62776;50.518;6.732;2024-01-15T01:51:00;5.68;;;5.18;;
74344;SDS011;62776;50.518;6.732;2024-01-15T01:53:49;4.95;;;4.47;;
74344;SDS011;62776;50.518;6.732;2024-01-15T01:56:36;5.28;;;4.78;;
74344;SDS011;62776;50.518;6.732;2024-01-15T01:59:23;5.35;;;4.75;;
74344;SDS011;62776;50.518;6.732;2024-01-15T02:02:12;6.28;;;5.68;;
74344;SDS011;62776;50.518;6.732;2024-01-15T02:05:28;6.05;;;4.80;;
74344;SDS011;62776;50.518;6.732;2024-01-15T02:08:18;5.97;;;5.38;;
74344;SDS011;62776;50.518;6.732;2024-01-15T02:11:07;5.25;;;4.53;;
74344;SDS011;62776;50.518;6.732;2024-01-15T02:14:06;4.70;;;4.20;;
74344;SDS011;62776;50.518;6.732;2024-01-15T02:16:54;5.38;;;4.88;;
74344;SDS011;62776;50.518;6.732;2024-01-15T02:19:40;5.90;;;5.28;;
74344;SDS011;62776;50.518;6.732;2024-01-15T02:22:32;5.55;;;5.05;;
74344;SDS011;62776;50.518;6.732;2024-01-15T02:28:06;5.07;;;4.57;;
74344;SDS011;62776;50.518;6.732;2024-01-15T02:31:03;5.38;;;4.88;;
74344;SDS011;62776;50.518;6.732;2024-01-15T02:36:44;5.65;;;5.15;;
74344;SDS011;62776;50.518;6.732;2024-01-15T02:39:51;4.78;;;4.38;;
74344;SDS011;62776;50.518;6.732;2024-01-15T02:42:38;5.43;;;4.93;;
74344;SDS011;62776;50.518;6.732;2024-01-15T02:45:24;5.40;;;4.90;;
74344;SDS011;62776;50.518;6.732;2024-01-15T02:48:34;5.32;;;4.80;;
74344;SDS011;62776;50.518;6.732;2024-01-15T02:51:21;4.90;;;4.50;;
74344;SDS011;62776;50.518;6.732;2024-01-15T02:54:07;5.22;;;4.72;;
74344;SDS011;62776;50.518;6.732;2024-01-15T03:04:48;4.30;;;3.90;;
74344;SDS011;62776;50.518;6.732;2024-01-15T03:12:15;4.47;;;3.90;;
74344;SDS011;62776;50.518;6.732;2024-01-15T03:15:04;4.63;;;4.22;;
74344;SDS011;62776;50.518;6.732;2024-01-15T03:17:51;3.75;;;3.45;;
74344;SDS011;62776;50.518;6.732;2024-01-15T03:20:37;4.57;;;4.18;;
74344;SDS011;62776;50.518;6.732;2024-01-15T03:23:24;4.93;;;4.43;;
74344;SDS011;62776;50.518;6.732;2024-01-15T03:26:14;4.90;;;4.50;;
74344;SDS011;62776;50.518;6.732;2024-01-15T03:29:17;4.32;;;4.03;;
74344;SDS011;62776;50.518;6.732;2024-01-15T03:32:04;4.45;;;4.05;;
74344;SDS011;62776;50.518;6.732;2024-01-15T03:34:52;4.80;;;4.40;;
74344;SDS011;62776;50.518;6.732;2024-01-15T03:37:38;4.47;;;4.10;;
74344;SDS011;62776;50.518;6.732;2024-01-15T03:40:24;3.88;;;3.50;;
74344;SDS011;62776;50.518;6.732;2024-01-15T03:43:11;4.25;;;3.85;;
74344;SDS011;62776;50.518;6.732;2024-01-15T03:46:01;4.43;;;4.03;;
74344;SDS011;62776;50.518;6.732;2024-01-15T03:48:47;3.97;;;3.67;;
74344;SDS011;62776;50.518;6.732;2024-01-15T03:51:33;4.00;;;3.70;;
74344;SDS011;62776;50.518;6.732;2024-01-15T03:54:19;4.15;;;3.83;;
74344;SDS011;62776;50.518;6.732;2024-01-15T03:57:15;4.88;;;4.38;;
74344;SDS011;62776;50.518;6.732;2024-01-15T04:00:01;4.38;;;3.97;;
74344;SDS011;62776;50.518;6.732;2024-01-15T04:02:52;4.38;;;3.97;;
74344;SDS011;62776;50.518;6.732;2024-01-15T04:05:39;4.53;;;4.13;;
74344;SDS011;62776;50.518;6.732;2024-01-15T04:08:25;3.60;;;3.30;;
74344;SDS011;62776;50.518;6.732;2024-01-15T04:11:11;4.55;;;4.15;;
74344;SDS011;62776;50.518;6.732;2024-01-15T04:14:00;3.53;;;3.22;;
74344;SDS011;62776;50.518;6.732;2024-01-15T04:16:47;3.78;;;3.47;;
74344;SDS011;62776;50.518;6.732;2024-01-15T04:19:52;3.92;;;3.53;;
74344;SDS011;62776;50.518;6.732;2024-01-15T04:22:50;3.38;;;3.08;;
74344;SDS011;62776;50.518;6.732;2024-01-15T04:25:37;4.13;;;3.80;;
74344;SDS011;62776;50.518;6.732;2024-01-15T04:28:26;3.85;;;3.55;;
74344;SDS011;62776;50.518;6.732;2024-01-15T04:31:20;3.85;;;3.55;;
74344;SDS011;62776;50.518;6.732;2024-01-15T04:34:08;3.83;;;3.53;;
74344;SDS011;62776;50.518;6.732;2024-01-15T04:36:55;3.60;;;3.30;;
74344;SDS011;62776;50.518;6.732;2024-01-15T04:39:42;3.20;;;2.90;;
74344;SDS011;62776;50.518;6.732;2024-01-15T04:42:28;3.92;;;3.63;;
74344;SDS011;62776;50.518;6.732;2024-01-15T04:45:15;3.72;;;3.42;;
74344;SDS011;62776;50.518;6.732;2024-01-15T04:48:01;3.97;;;3.67;;
74344;SDS011;62776;50.518;6.732;2024-01-15T04:50:48;3.42;;;3.13;;
74344;SDS011;62776;50.518;6.732;2024-01-15T04:53:37;4.07;;;3.67;;
74344;SDS011;62776;50.518;6.732;2024-01-15T04:56:24;3.50;;;3.20;;
74344;SDS011;62776;50.518;6.732;2024-01-15T04:59:10;3.63;;;3.40;;
74344;SDS011;62776;50.518;6.732;2024-01-15T05:01:57;3.50;;;3.20;;
74344;SDS011;62776;50.518;6.732;2024-01-15T05:04:43;4.15;;;3.75;;
74344;SDS011;62776;50.518;6.732;2024-01-15T05:07:30;3.83;;;3.47;;
74344;SDS011;62776;50.518;6.732;2024-01-15T05:10:19;3.70;;;3.40;;
74344;SDS011;62776;50.518;6.732;2024-01-15T05:13:05;3.47;;;3.17;;
74344;SDS011;62776;50.518;6.732;2024-01-15T05:15:52;3.13;;;2.92;;
74344;SDS011;62776;50.518;6.732;2024-01-15T05:18:41;3.30;;;3.00;;
74344;SDS011;62776;50.518;6.732;2024-01-15T05:21:28;3.80;;;3.47;;
74344;SDS011;62776;50.518;6.732;2024-01-15T05:24:14;3.85;;;3.55;;
74344;SDS011;62776;50.518;6.732;2024-01-15T05:27:01;3.60;;;3.30;;
74344;SDS011;62776;50.518;6.732;2024-01-15T05:29:47;4.13;;;3.72;;
74344;SDS011;62776;50.518;6.732;2024-01-15T05:32:33;4.32;;;3.90;;
74344;SDS011;62776;50.518;6.732;2024-01-15T05:35:20;4.82;;;3.60;;
74344;SDS011;62776;50.518;6.732;2024-01-15T05:38:06;4.28;;;3.90;;
74344;SDS011;62776;50.518;6.732;2024-01-15T05:40:54;3.60;;;3.30;;
74344;SDS011;62776;50.518;6.732;2024-01-15T05:43:41;3.90;;;3.50;;
74344;SDS011;62776;50.518;6.732;2024-01-15T05:46:30;4.10;;;3.80;;
74344;SDS011;62776;50.518;6.732;2024-01-15T05:49:16;3.75;;;3.45;;
74344;SDS011;62776;50.518;6.732;2024-01-15T05:52:02;3.60;;;3.30;;
74344;SDS011;62776;50.518;6.732;2024-01-15T05:54:55;3.70;;;3.40;;
74344;SDS011;62776;50.518;6.732;2024-01-15T05:57:43;3.83;;;3.47;;
74344;SDS011;62776;50.518;6.732;2024-01-15T06:00:33;4.10;;;3.80;;
74344;SDS011;62776;50.518;6.732;2024-01-15T06:03:20;3.95;;;3.65;;
74344;SDS011;62776;50.518;6.732;2024-01-15T06:06:08;3.55;;;3.22;;
74344;SDS011;62776;50.518;6.732;2024-01-15T06:08:54;3.53;;;3.22;;
74344;SDS011;62776;50.518;6.732;2024-01-15T06:11:44;4.20;;;3.80;;
74344;SDS011;62776;50.518;6.732;2024-01-15T06:14:30;3.95;;;3.65;;
74344;SDS011;62776;50.518;6.732;2024-01-15T06:17:16;4.07;;;3.67;;
74344;SDS011;62776;50.518;6.732;2024-01-15T06:20:03;3.60;;;3.30;;
74344;SDS011;62776;50.518;6.732;2024-01-15T06:22:50;3.88;;;3.53;;
74344;SDS011;62776;50.518;6.732;2024-01-15T06:25:43;3.83;;;3.25;;
74344;SDS011;62776;50.518;6.732;2024-01-15T06:28:29;4.13;;;3.72;;
74344;SDS011;62776;50.518;6.732;2024-01-15T06:31:16;3.80;;;3.50;;
74344;SDS011;62776;50.518;6.732;2024-01-15T06:34:02;3.67;;;3.33;;
74344;SDS011;62776;50.518;6.732;2024-01-15T06:36:48;4.25;;;3.90;;
74344;SDS011;62776;50.518;6.732;2024-01-15T06:39:35;3.97;;;3.67;;
74344;SDS011;62776;50.518;6.732;2024-01-15T06:42:21;5.30;;;4.68;;
74344;SDS011;62776;50.518;6.732;2024-01-15T06:45:07;3.90;;;3.20;;
74344;SDS011;62776;50.518;6.732;2024-01-15T06:47:55;4.00;;;3.50;;
74344;SDS011;62776;50.518;6.732;2024-01-15T06:50:41;4.70;;;3.25;;
74344;SDS011;62776;50.518;6.732;2024-01-15T06:53:28;3.70;;;3.40;;
74344;SDS011;62776;50.518;6.732;2024-01-15T06:56:14;3.83;;;3.38;;
74344;SDS011;62776;50.518;6.732;2024-01-15T06:59:03;3.78;;;3.47;;
74344;SDS011;62776;50.518;6.732;2024-01-15T07:01:49;3.92;;;3.53;;
74344;SDS011;62776;50.518;6.732;2024-01-15T07:04:35;3.53;;;3.28;;
74344;SDS011;62776;50.518;6.732;2024-01-15T07:07:21;3.70;;;3.33;;
74344;SDS011;62776;50.518;6.732;2024-01-15T07:10:09;3.13;;;2.78;;
74344;SDS011;62776;50.518;6.732;2024-01-15T07:12:59;3.50;;;3.10;;
74344;SDS011;62776;50.518;6.732;2024-01-15T07:15:48;4.63;;;3.22;;
74344;SDS011;62776;50.518;6.732;2024-01-15T07:18:36;3.30;;;3.00;;
74344;SDS011;62776;50.518;6.732;2024-01-15T07:21:23;3.88;;;3.55;;
74344;SDS011;62776;50.518;6.732;2024-01-15T07:24:09;3.60;;;3.30;;
74344;SDS011;62776;50.518;6.732;2024-01-15T07:26:55;3.70;;;3.22;;
74344;SDS011;62776;50.518;6.732;2024-01-15T07:29:41;3.83;;;3.53;;
74344;SDS011;62776;50.518;6.732;2024-01-15T07:32:28;4.07;;;3.75;;
74344;SDS011;62776;50.518;6.732;2024-01-15T07:35:14;3.33;;;3.03;;
74344;SDS011;62776;50.518;6.732;2024-01-15T07:38:02;3.80;;;3.50;;
74344;SDS011;62776;50.518;6.732;2024-01-15T07:40:50;3.50;;;3.20;;
74344;SDS011;62776;50.518;6.732;2024-01-15T07:43:38;4.03;;;3.70;;
74344;SDS011;62776;50.518;6.732;2024-01-15T07:46:26;4.10;;;3.70;;
74344;SDS011;62776;50.518;6.732;2024-01-15T07:49:12;4.05;;;3.42;;
74344;SDS011;62776;50.518;6.732;2024-01-15T07:52:01;4.10;;;3.67;;
74344;SDS011;62776;50.518;6.732;2024-01-15T07:54:56;3.88;;;3.58;;
74344;SDS011;62776;50.518;6.732;2024-01-15T07:57:51;4.25;;;3.70;;
74344;SDS011;62776;50.518;6.732;2024-01-15T08:00:48;3.50;;;3.17;;
74344;SDS011;62776;50.518;6.732;2024-01-15T08:03:35;3.55;;;3.25;;
74344;SDS011;62776;50.518;6.732;2024-01-15T08:06:28;3.92;;;3.63;;
74344;SDS011;62776;50.518;6.732;2024-01-15T08:09:20;4.93;;;3.80;;
74344;SDS011;62776;50.518;6.732;2024-01-15T08:12:09;4.03;;;3.63;;
74344;SDS011;62776;50.518;6.732;2024-01-15T08:14:56;4.00;;;3.55;;
74344;SDS011;62776;50.518;6.732;2024-01-15T08:17:43;3.30;;;3.00;;
74344;SDS011;62776;50.518;6.732;2024-01-15T08:20:29;3.80;;;3.50;;
74344;SDS011;62776;50.518;6.732;2024-01-15T08:23:15;4.50;;;3.67;;
74344;SDS011;62776;50.518;6.732;2024-01-15T08:26:02;3.25;;;2.95;;
74344;SDS011;62776;50.518;6.732;2024-01-15T08:28:48;3.42;;;3.13;;
74344;SDS011;62776;50.518;6.732;2024-01-15T08:31:35;3.58;;;3.28;;
74344;SDS011;62776;50.518;6.732;2024-01-15T08:34:21;2.95;;;2.67;;
74344;SDS011;62776;50.518;6.732;2024-01-15T08:37:07;3.42;;;3.13;;
74344;SDS011;62776;50.518;6.732;2024-01-15T08:39:54;4.07;;;3.00;;
74344;SDS011;62776;50.518;6.732;2024-01-15T08:42:40;2.85;;;2.65;;
74344;SDS011;62776;50.518;6.732;2024-01-15T08:45:26;4.05;;;3.05;;
74344;SDS011;62776;50.518;6.732;2024-01-15T08:48:12;3.05;;;2.42;;
74344;SDS011;62776;50.518;6.732;2024-01-15T08:51:00;2.75;;;2.55;;
74344;SDS011;62776;50.518;6.732;2024-01-15T08:53:53;2.70;;;1.90;;
74344;SDS011;62776;50.518;6.732;2024-01-15T08:56:40;2.80;;;2.45;;
74344;SDS011;62776;50.518;6.732;2024-01-15T08:59:26;3.65;;;2.70;;
74344;SDS011;62776;50.518;6.732;2024-01-15T09:02:15;1.90;;;1.80;;
74344;SDS011;62776;50.518;6.732;2024-01-15T09:05:02;2.67;;;2.47;;
74344;SDS011;62776;50.518;6.732;2024-01-15T09:07:49;2.10;;;1.90;;
74344;SDS011;62776;50.518;6.732;2024-01-15T09:10:37;2.53;;;2.33;;
74344;SDS011;62776;50.518;6.732;2024-01-15T09:13:23;1.88;;;1.77;;
74344;SDS011;62776;50.518;6.732;2024-01-15T09:16:15;2.00;;;1.83;;
74344;SDS011;62776;50.518;6.732;2024-01-15T09:19:03;2.17;;;1.98;;
74344;SDS011;62776;50.518;6.732;2024-01-15T09:22:02;2.20;;;2.00;;
74344;SDS011;62776;50.518;6.732;2024-01-15T09:45:59;2.20;;;2.00;;
74344;SDS011;62776;50.518;6.732;2024-01-15T09:49:14;2.30;;;2.10;;
74344;SDS011;62776;50.518;6.732;2024-01-15T09:52:03;2.88;;;2.33;;
74344;SDS011;62776;50.518;6.732;2024-01-15T09:54:52;2.92;;;2.38;;
74344;SDS011;62776;50.518;6.732;2024-01-15T09:57:40;3.00;;;2.80;;
74344;SDS011;62776;50.518;6.732;2024-01-15T10:00:29;2.90;;;2.25;;
74344;SDS011;62776;50.518;6.732;2024-01-15T10:03:18;2.97;;;2.15;;
74344;SDS011;62776;50.518;6.732;2024-01-15T10:06:07;2.70;;;2.50;;
74344;SDS011;62776;50.518;6.732;2024-01-15T10:08:56;2.60;;;2.38;;
74344;SDS011;62776;50.518;6.732;2024-01-15T10:11:50;2.10;;;2.00;;
74344;SDS011;62776;50.518;6.732;2024-01-15T10:14:40;2.72;;;2.47;;
74344;SDS011;62776;50.518;6.732;2024-01-15T10:17:31;4.22;;;2.40;;
74344;SDS011;62776;50.518;6.732;2024-01-15T10:20:26;2.92;;;2.72;;
74344;SDS011;62776;50.518;6.732;2024-01-15T10:23:18;2.22;;;2.03;;
74344;SDS011;62776;50.518;6.732;2024-01-15T10:26:10;2.33;;;2.13;;
74344;SDS011;62776;50.518;6.732;2024-01-15T10:29:03;2.83;;;2.58;;
74344;SDS011;62776;50.518;6.732;2024-01-15T10:31:50;2.50;;;2.30;;
74344;SDS011;62776;50.518;6.732;2024-01-15T10:35:03;3.20;;;2.90;;
74344;SDS011;62776;50.518;6.732;2024-01-15T10:37:54;2.63;;;2.30;;
74344;SDS011;62776;50.518;6.732;2024-01-15T10:40:40;2.38;;;2.10;;
74344;SDS011;62776;50.518;6.732;2024-01-15T10:43:30;2.40;;;2.20;;
74344;SDS011;62776;50.518;6.732;2024-01-15T10:46:22;3.05;;;2.83;;
74344;SDS011;62776;50.518;6.732;2024-01-15T10:49:09;2.47;;;2.20;;
74344;SDS011;62776;50.518;6.732;2024-01-15T10:52:28;2.85;;;2.65;;
74344;SDS011;62776;50.518;6.732;2024-01-15T10:55:36;2.58;;;2.17;;
74344;SDS011;62776;50.518;6.732;2024-01-15T10:58:29;3.38;;;2.40;;
74344;SDS011;62776;50.518;6.732;2024-01-15T11:01:21;3.47;;;2.08;;
74344;SDS011;62776;50.518;6.732;2024-01-15T11:04:15;3.45;;;2.15;;
74344;SDS011;62776;50.518;6.732;2024-01-15T11:07:05;3.08;;;2.35;;
74344;SDS011;62776;50.518;6.732;2024-01-15T11:09:52;2.38;;;2.00;;
74344;SDS011;62776;50.518;6.732;2024-01-15T11:12:41;2.00;;;1.90;;
74344;SDS011;62776;50.518;6.732;2024-01-15T11:15:30;2.22;;;2.03;;
74344;SDS011;62776;50.518;6.732;2024-01-15T11:18:19;2.20;;;2.05;;
74344;SDS011;62776;50.518;6.732;2024-01-15T11:26:51;2.00;;;1.77;;
74344;SDS011;62776;50.518;6.732;2024-01-15T11:29:39;2.17;;;1.90;;
74344;SDS011;62776;50.518;6.732;2024-01-15T11:32:32;1.70;;;1.60;;
74344;SDS011;62776;50.518;6.732;2024-01-15T11:35:19;2.10;;;1.90;;
74344;SDS011;62776;50.518;6.732;2024-01-15T11:38:05;2.17;;;1.98;;
74344;SDS011;62776;50.518;6.732;2024-01-15T11:40:52;1.70;;;1.60;;
74344;SDS011;62776;50.518;6.732;2024-01-15T11:43:40;2.42;;;2.22;;
74344;SDS011;62776;50.518;6.732;2024-01-15T11:46:26;2.30;;;2.10;;
74344;SDS011;62776;50.518;6.732;2024-01-15T11:52:50;2.08;;;1.88;;
74344;SDS011;62776;50.518;6.732;2024-01-15T11:55:50;3.08;;;2.05;;
74344;SDS011;62776;50.518;6.732;2024-01-15T11:58:37;1.85;;;1.73;;
74344;SDS011;62776;50.518;6.732;2024-01-15T12:01:30;2.03;;;1.92;;
74344;SDS011;62776;50.518;6.732;2024-01-15T12:04:20;1.90;;;1.80;;
74344;SDS011;62776;50.518;6.732;2024-01-15T12:07:25;2.85;;;1.90;;
74344;SDS011;62776;50.518;6.732;2024-01-15T12:10:14;3.28;;;2.25;;
74344;SDS011;62776;50.518;6.732;2024-01-15T12:16:02;3.50;;;1.88;;
74344;SDS011;62776;50.518;6.732;2024-01-15T12:18:50;3.00;;;1.88;;
74344;SDS011;62776;50.518;6.732;2024-01-15T12:21:38;1.92;;;1.77;;
74344;SDS011;62776;50.518;6.732;2024-01-15T12:24:30;1.40;;;1.30;;
74344;SDS011;62776;50.518;6.732;2024-01-15T12:27:17;6.10;;;1.80;;
74344;SDS011;62776;50.518;6.732;2024-01-15T12:30:03;2.22;;;1.67;;
74344;SDS011;62776;50.518;6.732;2024-01-15T12:32:54;4.78;;;2.00;;
74344;SDS011;62776;50.518;6.732;2024-01-15T12:35:40;2.17;;;1.98;;
74344;SDS011;62776;50.518;6.732;2024-01-15T12:38:34;3.05;;;2.28;;
74344;SDS011;62776;50.518;6.732;2024-01-15T12:41:20;2.47;;;1.67;;
74344;SDS011;62776;50.518;6.732;2024-01-15T12:44:09;2.00;;;1.40;;
74344;SDS011;62776;50.518;6.732;2024-01-15T12:46:56;1.85;;;1.67;;
74344;SDS011;62776;50.518;6.732;2024-01-15T12:49:42;2.15;;;1.70;;
74344;SDS011;62776;50.518;6.732;2024-01-15T12:52:34;4.35;;;1.70;;
74344;SDS011;62776;50.518;6.732;2024-01-15T12:55:22;1.80;;;1.70;;
74344;SDS011;62776;50.518;6.732;2024-01-15T12:58:11;3.45;;;1.70;;
74344;SDS011;62776;50.518;6.732;2024-01-15T13:00:57;1.92;;;1.83;;
74344;SDS011;62776;50.518;6.732;2024-01-15T13:03:43;1.58;;;1.48;;
74344;SDS011;62776;50.518;6.732;2024-01-15T13:06:32;2.28;;;1.80;;
74344;SDS011;62776;50.518;6.732;2024-01-15T13:09:21;2.20;;;1.60;;
74344;SDS011;62776;50.518;6.732;2024-01-15T13:12:11;2.13;;;1.67;;
74344;SDS011;62776;50.518;6.732;2024-01-15T13:14:58;1.63;;;1.52;;
74344;SDS011;62776;50.518;6.732;2024-01-15T13:17:49;1.83;;;1.73;;
74344;SDS011;62776;50.518;6.732;2024-01-15T13:20:36;1.83;;;1.42;;
74344;SDS011;62776;50.518;6.732;2024-01-15T13:23:22;2.80;;;1.58;;
74344;SDS011;62776;50.518;6.732;2024-01-15T13:26:12;2.25;;;1.50;;
74344;SDS011;62776;50.518;6.732;2024-01-15T13:29:05;1.70;;;1.60;;
74344;SDS011;62776;50.518;6.732;2024-01-15T13:31:51;3.03;;;2.13;;
74344;SDS011;62776;50.518;6.732;2024-01-15T13:34:40;1.40;;;1.30;;
74344;SDS011;62776;50.518;6.732;2024-01-15T13:37:31;7.43;;;2.22;;
74344;SDS011;62776;50.518;6.732;2024-01-15T13:40:39;2.15;;;1.50;;
74344;SDS011;62776;50.518;6.732;2024-01-15T13:43:34;1.60;;;1.50;;
74344;SDS011;62776;50.518;6.732;2024-01-15T13:46:45;2.88;;;1.52;;
74344;SDS011;62776;50.518;6.732;2024-01-15T13:49:31;1.80;;;1.63;;
74344;SDS011;62776;50.518;6.732;2024-01-15T13:52:22;1.63;;;1.52;;
74344;SDS011;62776;50.518;6.732;2024-01-15T13:55:08;3.75;;;1.50;;
74344;SDS011;62776;50.518;6.732;2024-01-15T13:57:57;2.50;;;1.58;;
74344;SDS011;62776;50.518;6.732;2024-01-15T14:00:45;4.20;;;1.83;;
74344;SDS011;62776;50.518;6.732;2024-01-15T14:03:31;1.90;;;1.70;;
74344;SDS011;62776;50.518;6.732;2024-01-15T14:06:19;1.75;;;1.60;;
74344;SDS011;62776;50.518;6.732;2024-01-15T14:09:05;1.90;;;1.67;;
74344;SDS011;62776;50.518;6.732;2024-01-15T14:11:57;1.58;;;1.48;;
74344;SDS011;62776;50.518;6.732;2024-01-15T14:14:43;2.10;;;1.52;;
74344;SDS011;62776;50.518;6.732;2024-01-15T14:17:33;3.25;;;1.83;;
74344;SDS011;62776;50.518;6.732;2024-01-15T14:20:19;1.95;;;1.83;;
74344;SDS011;62776;50.518;6.732;2024-01-15T14:23:08;3.22;;;2.05;;
74344;SDS011;62776;50.518;6.732;2024-01-15T14:25:57;3.17;;;1.70;;
74344;SDS011;62776;50.518;6.732;2024-01-15T14:28:48;1.83;;;1.70;;
74344;SDS011;62776;50.518;6.732;2024-01-15T14:31:35;3.38;;;1.70;;
74344;SDS011;62776;50.518;6.732;2024-01-15T14:34:24;1.73;;;1.63;;
74344;SDS011;62776;50.518;6.732;2024-01-15T14:37:12;1.50;;;1.40;;
74344;SDS011;62776;50.518;6.732;2024-01-15T14:40:16;2.17;;;1.67;;
74344;SDS011;62776;50.518;6.732;2024-01-15T14:43:03;1.65;;;1.55;;
74344;SDS011;62776;50.518;6.732;2024-01-15T14:49:01;2.33;;;1.90;;
74344;SDS011;62776;50.518;6.732;2024-01-15T14:51:47;1.60;;;1.50;;
74344;SDS011;62776;50.518;6.732;2024-01-15T14:54:34;2.22;;;1.70;;
74344;SDS011;62776;50.518;6.732;2024-01-15T14:57:26;1.77;;;1.53;;
74344;SDS011;62776;50.518;6.732;2024-01-15T15:00:12;1.60;;;1.50;;
74344;SDS011;62776;50.518;6.732;2024-01-15T15:02:58;1.50;;;1.40;;
74344;SDS011;62776;50.518;6.732;2024-01-15T15:05:45;1.27;;;1.23;;
74344;SDS011;62776;50.518;6.732;2024-01-15T15:08:31;1.50;;;1.40;;
74344;SDS011;62776;50.518;6.732;2024-01-15T15:11:21;1.80;;;1.70;;
74344;SDS011;62776;50.518;6.732;2024-01-15T15:14:11;1.85;;;1.50;;
74344;SDS011;62776;50.518;6.732;2024-01-15T15:17:00;1.20;;;1.10;;
74344;SDS011;62776;50.518;6.732;2024-01-15T15:19:50;1.50;;;1.40;;
74344;SDS011;62776;50.518;6.732;2024-01-15T15:22:38;1.70;;;1.60;;
74344;SDS011;62776;50.518;6.732;2024-01-15T15:25:24;1.23;;;1.20;;
74344;SDS011;62776;50.518;6.732;2024-01-15T15:28:12;1.50;;;1.40;;
74344;SDS011;62776;50.518;6.732;2024-01-15T15:31:01;1.50;;;1.40;;
74344;SDS011;62776;50.518;6.732;2024-01-15T15:33:48;1.50;;;1.40;;
74344;SDS011;62776;50.518;6.732;2024-01-15T15:36:34;1.60;;;1.50;;
74344;SDS011;62776;50.518;6.732;2024-01-15T15:39:23;1.30;;;1.20;;
74344;SDS011;62776;50.518;6.732;2024-01-15T15:42:12;1.60;;;1.40;;
74344;SDS011;62776;50.518;6.732;2024-01-15T15:44:58;1.10;;;1.10;;
74344;SDS011;62776;50.518;6.732;2024-01-15T15:47:45;2.05;;;1.63;;
74344;SDS011;62776;50.518;6.732;2024-01-15T15:50:31;1.35;;;1.25;;
74344;SDS011;62776;50.518;6.732;2024-01-15T15:53:18;1.58;;;1.40;;
74344;SDS011;62776;50.518;6.732;2024-01-15T15:56:07;1.35;;;1.25;;
74344;SDS011;62776;50.518;6.732;2024-01-15T15:59:19;1.33;;;1.23;;
74344;SDS011;62776;50.518;6.732;2024-01-15T16:02:06;2.90;;;1.58;;
74344;SDS011;62776;50.518;6.732;2024-01-15T16:04:52;1.58;;;1.48;;
74344;SDS011;62776;50.518;6.732;2024-01-15T16:07:39;1.42;;;1.33;;
74344;SDS011;62776;50.518;6.732;2024-01-15T16:10:26;1.52;;;1.42;;
74344;SDS011;62776;50.518;6.732;2024-01-15T16:13:12;1.00;;;1.00;;
74344;SDS011;62776;50.518;6.732;2024-01-15T16:15:59;1.50;;;1.40;;
74344;SDS011;62776;50.518;6.732;2024-01-15T16:18:45;1.05;;;1.05;;
74344;SDS011;62776;50.518;6.732;2024-01-15T16:21:32;1.52;;;1.40;;
74344;SDS011;62776;50.518;6.732;2024-01-15T16:24:19;1.55;;;1.33;;
74344;SDS011;62776;50.518;6.732;2024-01-15T16:27:07;1.23;;;1.17;;
74344;SDS011;62776;50.518;6.732;2024-01-15T16:29:54;1.10;;;1.10;;
74344;SDS011;62776;50.518;6.732;2024-01-15T16:32:40;1.10;;;1.00;;
74344;SDS011;62776;50.518;6.732;2024-01-15T16:35:26;1.80;;;1.20;;
74344;SDS011;62776;50.518;6.732;2024-01-15T16:38:12;2.13;;;1.42;;
74344;SDS011;62776;50.518;6.732;2024-01-15T16:40:59;2.42;;;1.70;;
74344;SDS011;62776;50.518;6.732;2024-01-15T16:43:45;1.23;;;1.10;;
74344;SDS011;62776;50.518;6.732;2024-01-15T16:46:33;4.25;;;1.75;;
74344;SDS011;62776;50.518;6.732;2024-01-15T16:49:19;1.40;;;1.30;;
74344;SDS011;62776;50.518;6.732;2024-01-15T16:52:05;1.60;;;1.38;;
74344;SDS011;62776;50.518;6.732;2024-01-15T16:54:53;2.00;;;1.40;;
74344;SDS011;62776;50.518;6.732;2024-01-15T16:57:39;1.60;;;1.13;;
74344;SDS011;62776;50.518;6.732;2024-01-15T17:00:27;1.60;;;1.50;;
74344;SDS011;62776;50.518;6.732;2024-01-15T17:03:16;3.15;;;2.17;;
74344;SDS011;62776;50.518;6.732;2024-01-15T17:06:02;3.60;;;2.00;;
74344;SDS011;62776;50.518;6.732;2024-01-15T17:08:49;3.28;;;1.50;;
74344;SDS011;62776;50.518;6.732;2024-01-15T17:11:35;2.13;;;1.55;;
74344;SDS011;62776;50.518;6.732;2024-01-15T17:14:22;1.55;;;1.42;;
74344;SDS011;62776;50.518;6.732;2024-01-15T17:17:11;1.50;;;1.40;;
74344;SDS011;62776;50.518;6.732;2024-01-15T17:20:01;1.65;;;1.40;;
74344;SDS011;62776;50.518;6.732;2024-01-15T17:22:49;2.70;;;1.50;;
74344;SDS011;62776;50.518;6.732;2024-01-15T17:25:37;1.83;;;1.58;;
74344;SDS011;62776;50.518;6.732;2024-01-15T17:28:24;2.55;;;1.75;;
74344;SDS011;62776;50.518;6.732;2024-01-15T17:31:11;1.83;;;1.65;;
74344;SDS011;62776;50.518;6.732;2024-01-15T17:33:57;1.60;;;1.40;;
74344;SDS011;62776;50.518;6.732;2024-01-15T17:36:43;2.42;;;1.73;;
74344;SDS011;62776;50.518;6.732;2024-01-15T17:39:30;1.60;;;1.50;;
74344;SDS011;62776;50.518;6.732;2024-01-15T17:42:16;2.20;;;2.00;;
74344;SDS011;62776;50.518;6.732;2024-01-15T17:45:03;2.28;;;2.08;;
74344;SDS011;62776;50.518;6.732;2024-01-15T17:47:58;2.80;;;1.77;;
74344;SDS011;62776;50.518;6.732;2024-01-15T17:50:46;2.30;;;1.98;;
74344;SDS011;62776;50.518;6.732;2024-01-15T17:53:35;2.38;;;1.58;;